createdAt,value
2023-03-12T00:02:28.057Z,69.32
2023-03-12T00:04:56.758Z,69.17
2023-03-12T00:07:24.547Z,69.20
2023-03-12T00:09:52.502Z,69.62
2023-03-12T00:12:20.330Z,69.50
2023-03-12T00:14:48.093Z,70.04
2023-03-12T00:17:15.887Z,70.25
2023-03-12T00:19:45.385Z,70.07
2023-03-12T00:22:13.329Z,70.11
2023-03-12T00:24:41.145Z,70.80
2023-03-12T00:27:08.968Z,70.75
2023-03-12T00:29:37.121Z,71.05
2023-03-12T00:32:05.047Z,70.83
2023-03-12T00:34:32.852Z,71.12
2023-03-12T00:37:02.034Z,70.96
2023-03-12T00:39:29.823Z,71.08
2023-03-12T00:41:57.648Z,71.82
2023-03-12T00:44:25.360Z,71.61
2023-03-12T00:46:53.624Z,72.04
2023-03-12T00:49:21.382Z,72.24
2023-03-12T00:51:49.103Z,72.29
2023-03-12T00:54:18.256Z,72.06
2023-03-12T00:56:46.839Z,72.00
2023-03-12T00:59:14.890Z,72.37
2023-03-12T01:01:43.199Z,72.70
2023-03-12T01:04:11.006Z,72.37
2023-03-12T01:06:39.123Z,72.21
2023-03-12T01:09:09.055Z,72.63
2023-03-12T01:11:39.730Z,72.87
2023-03-12T01:14:09.257Z,73.23
2023-03-12T01:16:37.095Z,73.14
2023-03-12T01:19:05.603Z,73.35
2023-03-12T01:21:33.496Z,73.08
2023-03-12T01:24:01.559Z,73.40
2023-03-12T01:26:29.406Z,73.71
2023-03-12T01:28:58.692Z,73.41
2023-03-12T01:31:26.931Z,73.32
2023-03-12T01:33:57.577Z,73.90
2023-03-12T01:36:27.386Z,73.59
2023-03-12T01:38:57.936Z,74.10
2023-03-12T01:41:27.516Z,74.28
2023-03-12T01:43:55.258Z,73.82
2023-03-12T01:46:29.044Z,74.24
2023-03-12T01:48:59.218Z,74.72
2023-03-12T01:51:29.574Z,74.47
2023-03-12T01:54:01.767Z,74.41
2023-03-12T01:56:33.220Z,74.94
2023-03-12T01:59:04.488Z,74.68
2023-03-12T02:01:34.301Z,74.45
2023-03-12T02:04:03.147Z,74.61
2023-03-12T02:06:38.303Z,74.90
2023-03-12T02:09:08.418Z,74.95
2023-03-12T02:11:36.503Z,74.68
2023-03-12T02:14:04.544Z,74.92
2023-03-12T02:16:34.019Z,74.77
2023-03-12T02:19:05.509Z,74.54
2023-03-12T02:21:35.858Z,74.55
2023-03-12T02:24:09.583Z,74.97
2023-03-12T02:26:39.718Z,74.52
2023-03-12T02:29:08.190Z,74.66
2023-03-12T02:31:41.931Z,74.72
2023-03-12T02:34:10.066Z,74.92
2023-03-12T02:36:37.945Z,74.46
2023-03-12T02:39:05.972Z,75.04
2023-03-12T02:41:36.658Z,75.18
2023-03-12T02:44:11.270Z,74.94
2023-03-12T02:46:42.272Z,75.05
2023-03-12T02:49:11.969Z,74.92
2023-03-12T02:51:40.032Z,75.86
2023-03-12T02:54:08.250Z,76.01
2023-03-12T02:56:36.504Z,75.94
2023-03-12T02:59:06.366Z,76.38
2023-03-12T03:01:34.918Z,76.35
2023-03-12T03:04:03.770Z,76.93
2023-03-12T03:06:32.552Z,77.15
2023-03-12T03:09:00.926Z,77.50
2023-03-12T03:11:28.884Z,77.29
2023-03-12T03:13:56.789Z,77.71
2023-03-12T03:16:26.259Z,78.25
2023-03-12T03:18:54.120Z,78.64
2023-03-12T03:21:22.705Z,78.99
2023-03-12T03:23:51.810Z,78.88
2023-03-12T03:26:22.847Z,79.59
2023-03-12T03:28:51.265Z,79.30
2023-03-12T03:31:19.412Z,79.36
2023-03-12T03:33:49.554Z,79.85
2023-03-12T03:36:18.782Z,80.00
2023-03-12T03:38:49.441Z,80.76
2023-03-12T03:41:18.508Z,80.98
2023-03-12T03:43:46.698Z,80.73
2023-03-12T03:46:15.963Z,81.65
2023-03-12T03:48:44.261Z,81.46
2023-03-12T03:51:14.788Z,82.29
2023-03-12T03:53:42.608Z,82.58
2023-03-12T03:56:12.253Z,82.36
2023-03-12T03:58:40.396Z,82.73
2023-03-12T04:01:08.468Z,82.93
2023-03-12T04:03:36.813Z,83.02
2023-03-12T04:06:07.365Z,83.40
2023-03-12T04:08:37.872Z,82.98
2023-03-12T04:11:10.366Z,83.48
2023-03-12T04:13:38.274Z,83.84
2023-03-12T04:16:06.731Z,84.14
2023-03-12T04:18:36.130Z,84.41
2023-03-12T04:21:05.022Z,84.84
2023-03-12T04:23:33.057Z,84.82
2023-03-12T04:26:02.255Z,85.01
2023-03-12T04:28:30.176Z,85.08
2023-03-12T04:30:59.721Z,86.06
2023-03-12T04:33:28.045Z,86.18
2023-03-12T04:35:56.372Z,86.09
2023-03-12T04:38:25.808Z,86.33
2023-03-12T04:40:59.859Z,86.61
2023-03-12T04:43:29.716Z,87.96
2023-03-12T04:45:58.429Z,88.16
2023-03-12T04:48:26.869Z,88.67
2023-03-12T04:50:54.984Z,88.77
2023-03-12T04:53:23.747Z,90.08
2023-03-12T04:55:52.127Z,91.37
2023-03-12T04:58:20.851Z,92.30
2023-03-12T05:00:51.035Z,93.55
2023-03-12T05:03:19.364Z,94.40
2023-03-12T05:05:47.135Z,94.80
2023-03-12T05:08:14.930Z,94.60
2023-03-12T05:10:45.442Z,95.12
2023-03-12T05:13:16.720Z,95.77
2023-03-12T05:15:44.649Z,96.58
2023-03-12T05:18:13.841Z,96.41
2023-03-12T05:20:41.934Z,96.72
2023-03-12T05:23:10.245Z,97.40
2023-03-12T05:25:40.229Z,97.81
2023-03-12T05:28:08.188Z,97.62
2023-03-12T05:30:36.131Z,98.60
2023-03-12T05:33:03.986Z,97.96
2023-03-12T05:35:33.167Z,98.31
2023-03-12T05:38:01.130Z,98.53
2023-03-12T05:40:29.000Z,98.90
2023-03-12T05:42:56.721Z,99.67
2023-03-12T05:45:24.482Z,99.76
2023-03-12T05:47:52.215Z,99.55
2023-03-12T05:50:20.118Z,99.96
2023-03-12T05:52:49.206Z,100.00
2023-03-12T05:55:17.205Z,100.00
2023-03-12T05:57:45.274Z,100.00
2023-03-12T06:00:15.066Z,100.00
2023-03-12T06:02:43.871Z,100.00
2023-03-12T06:05:11.964Z,100.00
2023-03-12T06:07:39.990Z,100.00
2023-03-12T06:10:11.026Z,100.00
2023-03-12T06:12:38.877Z,100.00
2023-03-12T06:15:07.578Z,100.00
2023-03-12T06:17:35.367Z,100.00
2023-03-12T06:20:03.138Z,100.00
2023-03-12T06:22:31.278Z,100.00
2023-03-12T06:24:59.099Z,100.00
2023-03-12T06:27:28.398Z,100.00
2023-03-12T06:29:57.883Z,100.00
2023-03-12T06:32:26.061Z,100.00
2023-03-12T06:34:55.749Z,100.00
2023-03-12T06:37:25.784Z,100.00
2023-03-12T06:39:53.772Z,100.00
2023-03-12T06:42:22.636Z,100.00
2023-03-12T06:44:52.214Z,100.00
2023-03-12T06:47:19.981Z,100.00
2023-03-12T06:49:47.703Z,100.00
2023-03-12T06:52:17.586Z,100.00
2023-03-12T06:54:45.374Z,100.00
2023-03-12T06:57:13.109Z,100.00
2023-03-12T06:59:40.872Z,100.00
2023-03-12T07:02:11.330Z,100.00
2023-03-12T07:04:39.236Z,100.00
2023-03-12T07:07:08.613Z,100.00
2023-03-12T07:09:37.576Z,100.00
2023-03-12T07:12:05.523Z,100.00
2023-03-12T07:14:36.050Z,100.00
2023-03-12T07:17:04.491Z,100.00
2023-03-12T07:19:33.665Z,100.00
2023-03-12T07:22:16.764Z,100.00
2023-03-12T07:24:44.566Z,100.00
2023-03-12T07:27:12.399Z,100.00
2023-03-12T07:29:40.247Z,100.00
2023-03-12T07:32:08.303Z,100.00
2023-03-12T07:34:37.407Z,100.00
2023-03-12T07:37:05.512Z,100.00
2023-03-12T07:39:33.294Z,100.00
2023-03-12T07:42:01.271Z,100.00
2023-03-12T07:44:29.088Z,100.00
2023-03-12T07:46:56.901Z,100.00
2023-03-12T07:49:24.707Z,100.00
2023-03-12T07:51:53.828Z,100.00
2023-03-12T07:54:25.511Z,100.00
2023-03-12T07:56:53.712Z,100.00
2023-03-12T07:59:22.289Z,100.00
2023-03-12T08:01:50.210Z,100.00
2023-03-12T08:04:18.075Z,100.00
2023-03-12T08:06:48.772Z,100.00
2023-03-12T08:09:17.961Z,100.00
2023-03-12T08:11:45.709Z,100.00
2023-03-12T08:14:13.535Z,100.00
2023-03-12T08:16:41.326Z,100.00
2023-03-12T08:19:24.667Z,100.00
2023-03-12T08:21:53.254Z,100.00
2023-03-12T08:24:23.161Z,100.00
2023-03-12T08:26:50.942Z,100.00
2023-03-12T08:29:18.946Z,100.00
2023-03-12T08:32:03.478Z,100.00
2023-03-12T08:34:32.167Z,100.00
2023-03-12T08:37:00.141Z,100.00
2023-03-12T08:39:29.501Z,100.00
2023-03-12T08:41:57.236Z,100.00
2023-03-12T08:44:25.663Z,100.00
2023-03-12T08:46:53.677Z,100.00
2023-03-12T08:49:22.732Z,100.00
2023-03-12T08:51:51.698Z,100.00
2023-03-12T08:54:19.933Z,100.00
2023-03-12T08:56:52.452Z,100.00
2023-03-12T08:59:22.216Z,100.00
2023-03-12T09:01:50.590Z,100.00
2023-03-12T09:04:18.421Z,100.00
2023-03-12T09:06:46.250Z,100.00
2023-03-12T09:09:14.039Z,100.00
2023-03-12T09:11:42.530Z,100.00
2023-03-12T09:16:59.691Z,100.00
2023-03-12T09:19:27.498Z,100.00
2023-03-12T09:21:55.491Z,100.00
2023-03-12T09:24:23.272Z,100.00
2023-03-12T09:26:51.395Z,100.00
2023-03-12T09:29:21.627Z,100.00
2023-03-12T09:31:49.419Z,100.00
2023-03-12T09:34:17.780Z,100.00
2023-03-12T09:36:45.663Z,100.00
2023-03-12T09:39:13.621Z,100.00
2023-03-12T09:41:43.893Z,100.00
2023-03-12T09:44:17.772Z,100.00
2023-03-12T09:46:50.161Z,100.00
2023-03-12T09:49:24.074Z,100.00
2023-03-12T09:51:56.562Z,100.00
2023-03-12T09:54:28.110Z,100.00
2023-03-12T09:56:59.172Z,100.00
2023-03-12T09:59:28.998Z,100.00
2023-03-12T10:02:01.243Z,100.00
2023-03-12T10:04:52.340Z,100.00
2023-03-12T10:07:33.027Z,100.00
2023-03-12T10:10:11.819Z,100.00
2023-03-12T10:12:52.837Z,100.00
2023-03-12T10:15:31.553Z,100.00
2023-03-12T10:18:12.024Z,100.00
2023-03-12T10:21:09.355Z,100.00
2023-03-12T10:23:50.199Z,100.00
2023-03-12T10:26:23.459Z,100.00
2023-03-12T10:28:54.764Z,100.00
2023-03-12T10:31:27.620Z,100.00
2023-03-12T10:33:59.782Z,100.00
2023-03-12T10:36:35.580Z,100.00
2023-03-12T10:39:03.361Z,100.00
2023-03-12T10:41:34.891Z,100.00
2023-03-12T10:44:07.997Z,100.00
2023-03-12T10:46:55.199Z,100.00
2023-03-12T10:49:31.183Z,100.00
2023-03-12T10:52:01.990Z,100.00
2023-03-12T10:54:32.837Z,100.00
2023-03-12T10:57:01.008Z,100.00
2023-03-12T10:59:32.366Z,100.00
2023-03-12T11:02:00.937Z,100.00
2023-03-12T11:04:32.462Z,100.00
2023-03-12T11:07:15.835Z,100.00
2023-03-12T11:09:43.559Z,100.00
2023-03-12T11:12:25.962Z,100.00
2023-03-12T11:14:53.904Z,100.00
2023-03-12T11:17:23.613Z,100.00
2023-03-12T11:19:52.865Z,100.00
2023-03-12T11:22:32.645Z,100.00
2023-03-12T11:25:04.102Z,100.00
2023-03-12T11:27:41.626Z,100.00
2023-03-12T11:30:15.346Z,100.00
2023-03-12T11:32:44.502Z,100.00
2023-03-12T11:35:16.030Z,100.00
2023-03-12T11:37:57.346Z,100.00
2023-03-12T11:40:49.265Z,100.00
2023-03-12T11:43:42.695Z,100.00
2023-03-12T11:46:27.572Z,100.00
2023-03-12T11:49:09.546Z,100.00
2023-03-12T11:51:51.113Z,100.00
2023-03-12T11:55:03.350Z,100.00
2023-03-12T11:57:47.932Z,100.00
2023-03-12T12:00:17.612Z,100.00
2023-03-12T12:03:28.353Z,100.00
2023-03-12T12:06:03.178Z,100.00
2023-03-12T12:08:57.531Z,100.00
2023-03-12T12:11:35.482Z,100.00
2023-03-12T12:14:15.913Z,100.00
2023-03-12T12:17:09.298Z,100.00
2023-03-12T12:19:51.713Z,100.00
2023-03-12T12:22:32.852Z,100.00
2023-03-12T12:25:22.175Z,100.00
2023-03-12T12:28:00.747Z,100.00
2023-03-12T12:30:47.604Z,100.00
2023-03-12T12:33:29.093Z,100.00
2023-03-12T12:35:56.935Z,100.00
2023-03-12T12:38:30.916Z,100.00
2023-03-12T12:41:08.998Z,100.00
2023-03-12T12:43:40.077Z,100.00
2023-03-12T12:46:11.601Z,100.00
2023-03-12T12:48:43.385Z,100.00
2023-03-12T12:51:13.465Z,100.00
2023-03-12T12:53:47.854Z,100.00
2023-03-12T12:56:23.993Z,100.00
2023-03-12T12:59:11.997Z,100.00
2023-03-12T13:01:40.733Z,100.00
2023-03-12T13:04:13.466Z,100.00
2023-03-12T13:06:59.275Z,100.00
2023-03-12T13:09:38.790Z,100.00
2023-03-12T13:12:16.433Z,100.00
2023-03-12T13:14:45.623Z,99.55
2023-03-12T13:17:31.233Z,98.37
2023-03-12T13:20:15.768Z,99.19
2023-03-12T13:23:00.982Z,98.54
2023-03-12T13:25:41.488Z,97.37
2023-03-12T13:28:32.905Z,96.80
2023-03-12T13:31:01.552Z,96.68
2023-03-12T13:33:42.168Z,95.25
2023-03-12T13:36:23.758Z,94.76
2023-03-12T13:38:58.099Z,92.44
2023-03-12T13:41:37.789Z,92.36
2023-03-12T13:44:40.436Z,90.79
2023-03-12T13:47:23.455Z,90.47
2023-03-12T13:49:56.085Z,90.32
2023-03-12T13:52:26.084Z,88.30
2023-03-12T13:55:01.969Z,88.47
2023-03-12T13:57:39.544Z,87.00
2023-03-12T14:00:17.490Z,86.58
2023-03-12T14:02:50.722Z,88.07
2023-03-12T14:05:20.978Z,87.77
2023-03-12T14:08:06.003Z,88.03
2023-03-12T14:10:44.712Z,87.17
2023-03-12T14:13:25.272Z,87.00
2023-03-12T14:16:01.768Z,87.27
2023-03-12T14:18:33.818Z,86.38
2023-03-12T14:21:04.559Z,86.58
2023-03-12T14:23:38.865Z,86.16
2023-03-12T14:26:08.538Z,85.95
2023-03-12T14:28:42.251Z,86.79
2023-03-12T14:31:15.318Z,86.29
2023-03-12T14:33:58.276Z,86.58
2023-03-12T14:36:30.431Z,86.83
2023-03-12T14:39:09.735Z,87.62
2023-03-12T14:41:44.334Z,87.07
2023-03-12T14:44:23.572Z,85.39
2023-03-12T14:47:01.008Z,85.86
2023-03-12T14:49:29.590Z,85.92
2023-03-12T14:51:58.070Z,85.68
2023-03-12T14:54:28.573Z,84.99
2023-03-12T14:56:56.485Z,84.62
2023-03-12T14:59:28.922Z,84.58
2023-03-12T15:02:02.237Z,84.78
2023-03-12T15:04:31.687Z,84.20
2023-03-12T15:07:04.405Z,84.53
2023-03-12T15:09:36.080Z,83.81
2023-03-12T15:12:09.344Z,84.10
2023-03-12T15:14:43.174Z,84.92
2023-03-12T15:17:17.379Z,85.61
2023-03-12T15:19:46.144Z,86.52
2023-03-12T15:22:18.450Z,87.06
2023-03-12T15:24:46.251Z,87.82
2023-03-12T15:27:23.306Z,88.48
2023-03-12T15:29:51.125Z,88.80
2023-03-12T15:32:22.653Z,88.68
2023-03-12T15:34:50.678Z,88.97
2023-03-12T15:37:24.737Z,89.17
2023-03-12T15:39:54.360Z,89.38
2023-03-12T15:42:25.415Z,89.25
2023-03-12T15:44:56.791Z,89.37
2023-03-12T15:47:28.960Z,89.44
2023-03-12T15:49:59.031Z,89.54
2023-03-12T15:52:32.856Z,89.39
2023-03-12T15:55:01.445Z,89.40
2023-03-12T15:57:30.456Z,89.73
2023-03-12T16:00:26.114Z,89.84
2023-03-12T16:02:58.178Z,88.98
2023-03-12T16:05:29.204Z,89.04
2023-03-12T16:07:57.316Z,89.23
2023-03-12T16:10:28.049Z,89.28
2023-03-12T16:13:03.343Z,88.70
2023-03-12T16:15:33.810Z,88.98
2023-03-12T16:18:03.276Z,89.24
2023-03-12T16:20:31.597Z,89.08
2023-03-12T16:22:59.400Z,89.18
2023-03-12T16:25:27.536Z,89.41
2023-03-12T16:27:59.085Z,89.40
2023-03-12T16:30:30.275Z,89.77
2023-03-12T16:32:58.596Z,89.58
2023-03-12T16:35:28.672Z,90.10
2023-03-12T16:37:56.956Z,90.25
2023-03-12T16:40:33.259Z,90.60
2023-03-12T16:43:03.948Z,90.40
2023-03-12T16:45:34.529Z,90.81
2023-03-12T16:48:04.386Z,91.14
2023-03-12T16:50:33.769Z,91.63
2023-03-12T16:53:03.980Z,92.04
2023-03-12T16:55:44.224Z,91.80
2023-03-12T16:58:14.102Z,91.79
2023-03-12T17:00:42.508Z,92.20
2023-03-12T17:03:19.544Z,92.33
2023-03-12T17:05:48.765Z,91.14
2023-03-12T17:08:16.764Z,91.00
2023-03-12T17:10:44.638Z,91.25
2023-03-12T17:13:19.884Z,91.74
2023-03-12T17:15:48.294Z,91.96
2023-03-12T17:18:16.633Z,91.92
2023-03-12T17:20:44.569Z,91.67
2023-03-12T17:23:13.971Z,91.82
2023-03-12T17:25:43.413Z,91.88
2023-03-12T17:28:12.624Z,92.26
2023-03-12T17:30:40.417Z,92.85
2023-03-12T17:33:10.678Z,93.07
2023-03-12T17:35:39.804Z,93.62
2023-03-12T17:38:08.187Z,93.89
2023-03-12T17:40:40.817Z,94.19
2023-03-12T17:43:08.585Z,94.50
2023-03-12T17:45:37.004Z,94.89
2023-03-12T17:48:05.459Z,94.97
2023-03-12T17:50:33.303Z,95.06
2023-03-12T17:53:01.430Z,95.52
2023-03-12T17:55:29.213Z,95.27
2023-03-12T17:57:58.376Z,95.56
2023-03-12T18:00:26.417Z,95.87
2023-03-12T18:02:54.244Z,96.08
2023-03-12T18:05:22.184Z,96.07
2023-03-12T18:07:50.527Z,96.18
2023-03-12T18:10:19.275Z,96.27
2023-03-12T18:12:47.059Z,95.89
2023-03-12T18:15:16.831Z,96.03
2023-03-12T18:17:45.679Z,95.96
2023-03-12T18:20:25.848Z,95.81
2023-03-12T18:23:04.012Z,95.90
2023-03-12T18:25:31.745Z,95.98
2023-03-12T18:27:59.593Z,96.26
2023-03-12T18:30:28.792Z,96.09
2023-03-12T18:32:56.661Z,96.20
2023-03-12T18:35:28.717Z,96.64
2023-03-12T18:37:57.860Z,96.81
2023-03-12T18:40:25.844Z,96.87
2023-03-12T18:42:53.749Z,96.62
2023-03-12T18:45:21.515Z,96.83
2023-03-12T18:47:51.091Z,96.86
2023-03-12T18:50:19.132Z,96.74
2023-03-12T18:52:47.322Z,96.69
2023-03-12T18:55:16.217Z,96.42
2023-03-12T18:57:44.726Z,96.50
2023-03-12T19:00:15.056Z,96.13
2023-03-12T19:02:43.224Z,95.80
2023-03-12T19:05:12.399Z,95.76
2023-03-12T19:07:40.933Z,95.48
2023-03-12T19:10:10.560Z,95.54
2023-03-12T19:12:51.021Z,95.64
2023-03-12T19:15:20.727Z,95.50
2023-03-12T19:17:48.541Z,95.57
2023-03-12T19:20:18.335Z,96.25
2023-03-12T19:22:46.318Z,95.71
2023-03-12T19:25:14.234Z,96.07
2023-03-12T19:27:42.145Z,96.30
2023-03-12T19:30:11.211Z,96.59
2023-03-12T19:32:43.781Z,96.72
2023-03-12T19:35:14.550Z,96.88
2023-03-12T19:37:43.985Z,96.64
2023-03-12T19:40:13.396Z,97.20
2023-03-12T19:42:41.457Z,97.46
2023-03-12T19:45:10.455Z,97.47
2023-03-12T19:47:38.400Z,98.01
2023-03-12T19:50:07.342Z,97.81
2023-03-12T19:52:35.282Z,98.13
2023-03-12T19:55:05.800Z,98.11
2023-03-12T19:57:37.831Z,98.32
2023-03-12T20:00:09.713Z,98.05
2023-03-12T20:02:38.796Z,98.09
2023-03-12T20:05:08.669Z,98.20
2023-03-12T20:07:37.033Z,98.34
2023-03-12T20:10:09.952Z,98.25
2023-03-12T20:12:38.196Z,98.32
2023-03-12T20:15:07.106Z,98.49
2023-03-12T20:17:36.549Z,98.69
2023-03-12T20:20:05.866Z,98.69
2023-03-12T20:22:36.359Z,98.65
2023-03-12T20:25:06.811Z,98.75
2023-03-12T20:27:35.279Z,98.92
2023-03-12T20:30:03.751Z,99.07
2023-03-12T20:32:31.685Z,98.66
2023-03-12T20:34:59.537Z,98.86
2023-03-12T20:37:27.399Z,98.95
2023-03-12T20:39:55.235Z,98.54
2023-03-12T20:42:24.398Z,99.02
2023-03-12T20:44:53.338Z,99.13
2023-03-12T20:47:21.062Z,98.90
2023-03-12T20:49:48.882Z,99.07
2023-03-12T20:52:16.718Z,99.24
2023-03-12T20:54:44.668Z,99.15
2023-03-12T20:57:12.452Z,99.37
2023-03-12T20:59:41.633Z,99.28
2023-03-12T21:02:13.976Z,99.41
2023-03-12T21:04:42.214Z,99.25
2023-03-12T21:07:10.017Z,99.47
2023-03-12T21:09:37.853Z,99.06
2023-03-12T21:12:06.018Z,99.50
2023-03-12T21:14:33.890Z,99.55
2023-03-12T21:17:03.096Z,99.58
2023-03-12T21:19:31.138Z,99.66
2023-03-12T21:21:59.164Z,99.87
2023-03-12T21:24:26.970Z,100.00
2023-03-12T21:26:55.091Z,100.00
2023-03-12T21:29:22.879Z,100.00
2023-03-12T21:31:53.694Z,100.00
2023-03-12T21:34:23.018Z,100.00
2023-03-12T21:36:50.802Z,100.00
2023-03-12T21:39:18.875Z,100.00
2023-03-12T21:41:46.643Z,100.00
2023-03-12T21:44:16.505Z,100.00
2023-03-12T21:46:44.666Z,100.00
2023-03-12T21:49:13.947Z,100.00
2023-03-12T21:51:43.104Z,100.00
2023-03-12T21:54:11.584Z,100.00
2023-03-12T21:57:02.532Z,100.00
2023-03-12T21:59:31.426Z,100.00
2023-03-12T22:01:59.840Z,100.00
2023-03-12T22:04:28.714Z,100.00
2023-03-12T22:06:57.925Z,100.00
2023-03-12T22:09:25.815Z,100.00
2023-03-12T22:11:53.844Z,100.00
2023-03-12T22:14:21.628Z,100.00
2023-03-12T22:16:49.379Z,100.00
2023-03-12T22:19:17.170Z,100.00
2023-03-12T22:21:46.815Z,100.00
2023-03-12T22:24:15.919Z,100.00
2023-03-12T22:26:43.864Z,100.00
2023-03-12T22:29:11.762Z,100.00
2023-03-12T22:31:39.658Z,100.00
2023-03-12T22:34:07.677Z,100.00
2023-03-12T22:36:35.486Z,100.00
2023-03-12T22:39:03.213Z,100.00
2023-03-12T22:41:32.810Z,100.00
2023-03-12T22:44:39.889Z,100.00
2023-03-12T22:47:04.410Z,100.00
2023-03-12T22:49:32.281Z,100.00
2023-03-12T22:52:00.118Z,100.00
2023-03-12T22:54:27.851Z,100.00
2023-03-12T22:56:56.977Z,100.00
2023-03-12T22:59:24.779Z,100.00
2023-03-12T23:01:52.752Z,100.00
2023-03-12T23:05:03.070Z,100.00
2023-03-12T23:07:31.000Z,100.00
2023-03-12T23:09:59.232Z,100.00
2023-03-12T23:12:28.376Z,100.00
2023-03-12T23:14:56.181Z,100.00
2023-03-12T23:17:24.033Z,100.00
2023-03-12T23:19:52.025Z,100.00
2023-03-12T23:22:19.935Z,100.00
2023-03-12T23:24:47.692Z,100.00
2023-03-12T23:27:15.412Z,100.00
2023-03-12T23:29:44.666Z,100.00
2023-03-12T23:32:12.420Z,100.00
2023-03-12T23:34:40.194Z,100.00
2023-03-12T23:37:08.165Z,100.00
2023-03-12T23:39:48.457Z,100.00
2023-03-12T23:42:22.000Z,100.00
2023-03-12T23:44:51.167Z,100.00
2023-03-12T23:47:19.051Z,100.00
2023-03-12T23:49:46.858Z,100.00
2023-03-12T23:52:14.625Z,100.00
2023-03-12T23:54:42.370Z,100.00
2023-03-12T23:57:10.180Z,100.00
2023-03-12T23:59:37.914Z,100.00
